Time;durP1;ratioP1;P1;durP2;ratioP2;P2;SDS_P1;SDS_P2;PMS_P1;PMS_P2;Temp;Humidity;BMP_temperature;BMP_pressure;BME280_temperature;BME280_humidity;BME280_pressure;Samples;Min_cycle;Max_cycle;Signal;HPM_P1;HPM_P2
2022/05/08 00:00:01;;;;;;;21.02;6.47;;;7.70;99.90;;;;;;4962043;28;89867;-34
2022/05/08 00:02:26;;;;;;;18.10;7.55;;;7.60;99.90;;;;;;4961151;28;90835;-35
2022/05/08 00:04:53;;;;;;;25.83;7.32;;;7.60;99.90;;;;;;4960520;28;90417;-35
2022/05/08 00:07:22;;;;;;;24.48;8.60;;;7.60;99.90;;;;;;4961707;28;89274;-34
2022/05/08 00:09:48;;;;;;;25.83;8.05;;;7.60;99.90;;;;;;4962006;28;90617;-37
2022/05/08 00:12:16;;;;;;;24.73;8.93;;;7.50;99.90;;;;;;4962011;28;90162;-34
2022/05/08 00:14:42;;;;;;;19.95;7.93;;;7.40;99.90;;;;;;4961263;28;89870;-33
2022/05/08 00:17:14;;;;;;;24.13;7.78;;;7.40;99.90;;;;;;4960423;28;87884;-36
2022/05/08 00:19:44;;;;;;;23.35;7.90;;;7.40;99.90;;;;;;4960727;28;90604;-35
2022/05/08 00:22:11;;;;;;;22.80;7.32;;;7.40;99.90;;;;;;4954537;28;90556;-34
2022/05/08 00:24:37;;;;;;;30.40;8.30;;;7.30;99.90;;;;;;4942399;28;90232;-34
2022/05/08 00:27:04;;;;;;;19.73;7.68;;;7.30;99.90;;;;;;4940952;28;90393;-36
2022/05/08 00:29:29;;;;;;;17.67;8.07;;;7.30;99.90;;;;;;4941611;28;89924;-33
2022/05/08 00:31:56;;;;;;;15.68;7.13;;;7.20;99.90;;;;;;4941762;28;89566;-35
2022/05/08 00:34:22;;;;;;;24.42;9.25;;;7.20;99.90;;;;;;4941139;28;89890;-36
2022/05/08 00:36:47;;;;;;;31.63;8.05;;;7.20;99.90;;;;;;4941689;28;88394;-35
2022/05/08 00:39:13;;;;;;;20.83;6.32;;;7.20;99.90;;;;;;4941225;28;90666;-34
2022/05/08 00:41:39;;;;;;;30.05;8.60;;;7.10;99.90;;;;;;4950027;22;89849;-34
2022/05/08 00:44:04;;;;;;;20.30;7.68;;;7.10;99.90;;;;;;4903002;28;90416;-32
2022/05/08 00:46:30;;;;;;;18.27;7.75;;;7.10;99.90;;;;;;4903509;28;89858;-35
2022/05/08 00:48:56;;;;;;;25.58;7.38;;;7.10;99.90;;;;;;4902930;28;90234;-37
2022/05/08 00:51:23;;;;;;;27.17;8.90;;;7.10;99.90;;;;;;4901875;28;90794;-35
2022/05/08 00:53:54;;;;;;;15.38;6.95;;;7.00;99.90;;;;;;4902308;28;90395;-33
2022/05/08 00:56:20;;;;;;;27.20;7.90;;;7.00;99.90;;;;;;4902474;28;88999;-34
2022/05/08 00:58:48;;;;;;;29.05;7.28;;;7.00;99.90;;;;;;4902927;28;89924;-36
2022/05/08 01:01:14;;;;;;;21.40;8.07;;;6.90;99.90;;;;;;4903020;28;90107;-35
2022/05/08 01:03:41;;;;;;;23.25;7.82;;;6.90;99.90;;;;;;4902474;28;89289;-34
2022/05/08 01:06:12;;;;;;;16.92;7.88;;;6.90;99.90;;;;;;4902282;28;88928;-34
2022/05/08 01:08:46;;;;;;;17.83;7.43;;;6.90;99.90;;;;;;4902488;28;90341;-37
2022/05/08 01:11:12;;;;;;;21.80;7.57;;;6.90;99.90;;;;;;4902744;28;89962;-36
2022/05/08 01:13:39;;;;;;;19.40;7.28;;;6.90;99.90;;;;;;4902006;28;89618;-38
2022/05/08 01:16:11;;;;;;;14.98;6.35;;;6.90;99.90;;;;;;4901186;28;89783;-34
2022/05/08 01:18:38;;;;;;;21.80;7.60;;;6.90;99.90;;;;;;4901249;28;90050;-34
2022/05/08 01:21:05;;;;;;;24.50;8.93;;;6.90;99.90;;;;;;4901836;28;89665;-37
2022/05/08 01:23:31;;;;;;;14.93;7.25;;;6.80;99.90;;;;;;4903392;28;89542;-35
2022/05/08 01:25:57;;;;;;;21.30;8.63;;;6.80;99.90;;;;;;4902273;28;89150;-37
2022/05/08 01:28:24;;;;;;;23.75;8.07;;;6.80;99.90;;;;;;4902495;28;90767;-33
2022/05/08 01:30:51;;;;;;;24.35;7.68;;;6.80;99.90;;;;;;4902308;28;89923;-35
2022/05/08 01:33:17;;;;;;;36.22;10.38;;;6.80;99.90;;;;;;4902534;28;89592;-35
2022/05/08 01:35:43;;;;;;;19.85;8.68;;;6.80;99.90;;;;;;4901355;28;89103;-36
2022/05/08 01:38:12;;;;;;;27.00;8.35;;;6.70;99.90;;;;;;4901963;28;90457;-36
2022/05/08 01:40:39;;;;;;;28.65;8.88;;;6.70;99.90;;;;;;4901279;28;90323;-31
2022/05/08 01:43:05;;;;;;;23.27;9.07;;;6.70;99.90;;;;;;4901697;28;91726;-37
2022/05/08 01:45:32;;;;;;;23.58;9.55;;;6.70;99.90;;;;;;4902224;28;89503;-36
2022/05/08 01:48:44;;;;;;;20.52;7.63;;;6.70;99.90;;;;;;4901543;28;90235;-35
2022/05/08 01:50:44;;;;;;;22.45;7.93;;;6.70;99.90;;;;;;4900367;28;89765;-37
2022/05/08 01:53:11;;;;;;;21.13;9.48;;;6.70;99.90;;;;;;4901550;28;88855;-36
2022/05/08 01:55:36;;;;;;;26.38;8.75;;;6.70;99.90;;;;;;4902013;28;89375;-36
2022/05/08 01:58:02;;;;;;;18.60;9.63;;;6.60;99.90;;;;;;4902234;28;90701;-34
2022/05/08 02:00:29;;;;;;;18.98;9.82;;;6.60;99.90;;;;;;4901898;28;89608;-38
2022/05/08 02:02:58;;;;;;;22.00;9.27;;;6.60;99.90;;;;;;4902508;28;89694;-34
2022/05/08 02:05:24;;;;;;;19.30;8.52;;;6.60;99.90;;;;;;4902159;28;89860;-33
2022/05/08 02:07:50;;;;;;;28.00;8.88;;;6.50;99.90;;;;;;4900805;28;89046;-33
2022/05/08 02:10:17;;;;;;;27.13;8.85;;;6.50;99.90;;;;;;4901732;28;89402;-35
2022/05/08 02:12:44;;;;;;;30.38;9.00;;;6.50;99.90;;;;;;4901034;28;90775;-35
2022/05/08 02:15:11;;;;;;;20.58;8.75;;;6.40;99.90;;;;;;4901925;28;89453;-33
2022/05/08 02:17:37;;;;;;;23.05;9.98;;;6.40;99.90;;;;;;4901417;28;90284;-38
2022/05/08 02:20:06;;;;;;;18.38;7.88;;;6.30;99.90;;;;;;4901238;28;89435;-33
2022/05/08 02:22:32;;;;;;;23.90;7.93;;;6.30;99.90;;;;;;4901745;28;89725;-36
2022/05/08 02:24:58;;;;;;;25.65;8.50;;;6.30;99.90;;;;;;4900877;28;88943;-37
2022/05/08 02:27:23;;;;;;;14.43;7.70;;;6.30;99.90;;;;;;4901846;28;90564;-36
2022/05/08 02:29:50;;;;;;;21.02;7.15;;;6.30;99.90;;;;;;4900372;28;90788;-38
2022/05/08 02:32:16;;;;;;;18.40;7.50;;;6.30;99.90;;;;;;4901145;28;90727;-36
2022/05/08 02:34:42;;;;;;;16.20;8.23;;;6.30;99.90;;;;;;4901726;28;89196;-33
2022/05/08 02:37:08;;;;;;;20.27;7.68;;;6.20;99.90;;;;;;4900563;28;91533;-37
2022/05/08 02:39:33;;;;;;;19.15;9.23;;;6.20;99.90;;;;;;4901587;28;89576;-34
2022/05/08 02:41:59;;;;;;;17.45;8.30;;;6.10;99.90;;;;;;4900431;28;89813;-34
2022/05/08 02:44:24;;;;;;;26.55;9.73;;;6.10;99.90;;;;;;4901737;28;87562;-38
2022/05/08 02:46:50;;;;;;;18.65;8.57;;;6.00;99.90;;;;;;4901333;28;90274;-35
2022/05/08 02:49:16;;;;;;;20.02;8.65;;;6.00;99.90;;;;;;4900454;28;88480;-39
2022/05/08 02:51:41;;;;;;;20.65;8.38;;;6.00;99.90;;;;;;4900992;28;89763;-34
2022/05/08 02:54:07;;;;;;;12.15;7.35;;;6.00;99.90;;;;;;4900700;28;89992;-33
2022/05/08 02:59:17;;;;;;;26.45;8.75;;;5.90;99.90;;;;;;4900961;28;89805;-34
2022/05/08 03:01:43;;;;;;;17.38;8.07;;;5.80;99.90;;;;;;4900441;28;89882;-38
2022/05/08 03:04:08;;;;;;;25.05;9.07;;;5.70;99.90;;;;;;4901344;28;88818;-34
2022/05/08 03:06:34;;;;;;;18.80;8.02;;;5.70;99.90;;;;;;4900877;28;90342;-36
2022/05/08 03:08:59;;;;;;;11.82;7.45;;;5.70;99.90;;;;;;4900865;28;89649;-36
2022/05/08 03:11:25;;;;;;;22.75;8.55;;;5.80;99.90;;;;;;4900715;28;91461;-32
2022/05/08 03:13:51;;;;;;;24.92;7.80;;;5.80;99.90;;;;;;4901183;28;89161;-36
2022/05/08 03:16:17;;;;;;;25.33;7.93;;;5.90;99.90;;;;;;4900471;28;90516;-34
2022/05/08 03:18:45;;;;;;;22.92;8.48;;;5.90;99.90;;;;;;4899923;28;90538;-38
2022/05/08 03:21:13;;;;;;;15.40;9.15;;;5.80;99.90;;;;;;4901528;28;90350;-36
2022/05/08 03:23:39;;;;;;;23.55;9.13;;;5.70;99.90;;;;;;4901301;28;88035;-33
2022/05/08 03:26:06;;;;;;;18.00;8.95;;;5.50;99.90;;;;;;4900546;28;90860;-35
2022/05/08 03:28:32;;;;;;;17.55;6.93;;;5.50;99.90;;;;;;4900375;28;89435;-35
2022/05/08 03:31:00;;;;;;;12.73;7.45;;;5.50;99.90;;;;;;4900994;28;89447;-33
2022/05/08 03:33:27;;;;;;;18.05;9.25;;;5.50;99.90;;;;;;4901148;28;88680;-34
2022/05/08 03:35:52;;;;;;;23.33;8.60;;;5.50;99.90;;;;;;4899960;28;89965;-35
2022/05/08 03:38:18;;;;;;;15.70;8.60;;;5.40;99.90;;;;;;4901110;28;89333;-35
2022/05/08 03:40:44;;;;;;;25.05;8.88;;;5.50;99.90;;;;;;4901980;28;89298;-33
2022/05/08 03:43:09;;;;;;;25.88;8.32;;;5.50;99.90;;;;;;4903864;28;89188;-33
2022/05/08 03:45:35;;;;;;;16.25;7.45;;;5.60;99.90;;;;;;4903699;28;90439;-35
2022/05/08 03:48:01;;;;;;;17.70;7.65;;;5.70;99.90;;;;;;4903451;28;89645;-37
2022/05/08 03:50:28;;;;;;;13.65;8.23;;;5.70;99.90;;;;;;4903766;28;90104;-35
2022/05/08 03:52:54;;;;;;;17.35;8.27;;;5.70;99.90;;;;;;4903359;28;90308;-33
2022/05/08 03:55:19;;;;;;;15.25;8.30;;;5.70;99.90;;;;;;4903254;28;90342;-35
2022/05/08 03:57:45;;;;;;;15.32;7.60;;;5.70;99.90;;;;;;4903396;28;91165;-37
2022/05/08 04:00:12;;;;;;;22.50;9.25;;;5.70;99.90;;;;;;4903360;28;89856;-33
2022/05/08 04:02:38;;;;;;;19.10;8.25;;;5.70;99.90;;;;;;4903676;28;87792;-34
2022/05/08 04:05:05;;;;;;;14.23;8.27;;;5.70;99.90;;;;;;4903326;28;90178;-34
2022/05/08 04:07:31;;;;;;;18.90;8.57;;;5.80;99.90;;;;;;4902920;28;90851;-33
2022/05/08 04:09:58;;;;;;;18.20;7.88;;;5.70;99.90;;;;;;4903418;28;90826;-37
2022/05/08 04:12:24;;;;;;;17.42;8.40;;;5.80;99.90;;;;;;4903869;28;89378;-38
2022/05/08 04:14:50;;;;;;;16.38;8.27;;;5.80;99.90;;;;;;4903363;28;90243;-34
2022/05/08 04:17:16;;;;;;;18.83;8.30;;;5.80;99.90;;;;;;4903154;28;89704;-37
2022/05/08 04:19:42;;;;;;;24.23;7.63;;;5.90;99.90;;;;;;4902729;28;89252;-36
2022/05/08 04:24:53;;;;;;;10.15;7.05;;;5.90;99.90;;;;;;4903791;28;90179;-34
2022/05/08 04:27:19;;;;;;;14.10;7.88;;;5.90;99.90;;;;;;4902616;28;90144;-34
2022/05/08 04:29:45;;;;;;;20.27;7.75;;;6.00;99.90;;;;;;4902905;28;89877;-35
2022/05/08 04:32:11;;;;;;;16.77;7.85;;;6.00;99.90;;;;;;4902856;28;89870;-34
2022/05/08 04:34:37;;;;;;;27.25;8.65;;;6.10;99.90;;;;;;4902854;28;90722;-33
2022/05/08 04:37:03;;;;;;;20.13;8.43;;;6.20;99.90;;;;;;4903415;28;89680;-34
2022/05/08 04:39:29;;;;;;;14.63;8.77;;;6.30;99.90;;;;;;4902477;28;89759;-34
2022/05/08 04:41:54;;;;;;;22.45;9.35;;;6.50;99.90;;;;;;4903008;28;89810;-33
2022/05/08 04:44:20;;;;;;;18.17;8.57;;;6.70;99.90;;;;;;4902556;28;89786;-34
2022/05/08 04:46:46;;;;;;;20.00;8.77;;;6.80;99.90;;;;;;4902619;28;89619;-38
2022/05/08 04:49:12;;;;;;;27.58;9.05;;;7.00;99.90;;;;;;4902706;28;89650;-36
2022/05/08 04:51:37;;;;;;;18.02;7.28;;;7.40;99.90;;;;;;4901432;28;89080;-34
2022/05/08 04:54:03;;;;;;;26.77;7.53;;;7.70;99.90;;;;;;4902871;28;89316;-33
2022/05/08 04:56:30;;;;;;;17.42;7.70;;;7.70;99.90;;;;;;4901412;28;90619;-37
2022/05/08 04:58:55;;;;;;;13.20;7.78;;;7.50;99.90;;;;;;4902360;28;90553;-38
2022/05/08 05:01:21;;;;;;;17.27;7.75;;;7.50;99.90;;;;;;4901742;28;87918;-33
2022/05/08 05:03:48;;;;;;;18.25;8.70;;;7.40;99.90;;;;;;4901975;28;90224;-33
2022/05/08 05:06:14;;;;;;;21.38;8.57;;;7.50;99.90;;;;;;4902508;28;90153;-36
2022/05/08 05:08:39;;;;;;;16.85;7.18;;;7.60;99.90;;;;;;4902192;28;89683;-34
2022/05/08 05:11:11;;;;;;;13.35;7.13;;;7.70;99.90;;;;;;4902246;28;89086;-37
2022/05/08 05:13:38;;;;;;;20.20;8.00;;;7.70;99.90;;;;;;4902020;28;90149;-34
2022/05/08 05:16:07;;;;;;;16.00;7.63;;;7.80;99.90;;;;;;4902522;28;90232;-35
2022/05/08 05:18:33;;;;;;;13.98;7.60;;;7.80;99.90;;;;;;4902495;28;89396;-36
2022/05/08 05:20:58;;;;;;;16.60;7.22;;;7.90;99.90;;;;;;4901682;28;89967;-34
2022/05/08 05:23:24;;;;;;;13.55;6.47;;;8.10;99.90;;;;;;4901790;28;90580;-34
2022/05/08 05:25:50;;;;;;;12.75;6.93;;;8.20;99.90;;;;;;4902282;28;89433;-36
2022/05/08 05:28:16;;;;;;;14.80;6.72;;;8.10;99.90;;;;;;4901402;28;88865;-35
2022/05/08 05:30:42;;;;;;;13.27;6.75;;;8.30;99.90;;;;;;4901513;28;89479;-36
2022/05/08 05:33:07;;;;;;;19.85;6.38;;;8.60;99.90;;;;;;4901820;28;90418;-35
2022/05/08 05:35:36;;;;;;;15.90;6.88;;;8.50;99.90;;;;;;4901737;28;89943;-34
2022/05/08 05:38:02;;;;;;;12.57;6.57;;;8.50;99.90;;;;;;4902272;28;89499;-37
2022/05/08 05:40:28;;;;;;;13.25;6.57;;;8.70;99.90;;;;;;4901606;28;89946;-34
2022/05/08 05:42:53;;;;;;;18.60;7.65;;;8.80;99.90;;;;;;4901274;28;89096;-36
2022/05/08 05:45:19;;;;;;;18.15;7.10;;;8.70;99.90;;;;;;4915571;28;97145;-34
2022/05/08 05:47:50;;;;;;;15.85;6.80;;;8.80;99.90;;;;;;4900303;28;90508;-34
2022/05/08 05:50:17;;;;;;;22.40;6.82;;;8.90;99.90;;;;;;4901784;28;89029;-35
2022/05/08 05:52:43;;;;;;;16.25;7.03;;;9.00;99.90;;;;;;4901367;28;90274;-33
2022/05/08 05:55:09;;;;;;;19.45;6.18;;;9.00;99.90;;;;;;4902187;28;89453;-38
2022/05/08 05:57:35;;;;;;;10.45;6.05;;;9.10;99.90;;;;;;4901395;28;90232;-38
2022/05/08 06:00:02;;;;;;;15.32;4.90;;;9.30;99.90;;;;;;4901794;28;89295;-38
2022/05/08 06:02:28;;;;;;;17.45;5.85;;;9.10;99.90;;;;;;4901951;28;90386;-36
2022/05/08 06:04:53;;;;;;;14.57;5.90;;;9.30;99.90;;;;;;4900844;28;89731;-34
2022/05/08 06:07:19;;;;;;;10.02;5.30;;;9.30;99.90;;;;;;4901118;28;89473;-38
2022/05/08 06:09:45;;;;;;;13.27;6.43;;;9.50;99.90;;;;;;4900606;28;90649;-34
2022/05/08 06:12:10;;;;;;;17.45;5.78;;;9.60;99.90;;;;;;4901385;28;90144;-36
2022/05/08 06:14:36;;;;;;;17.27;4.90;;;9.80;99.90;;;;;;4901480;28;89374;-35
2022/05/08 06:17:02;;;;;;;13.18;5.00;;;9.70;99.90;;;;;;4901407;28;89528;-32
2022/05/08 06:19:27;;;;;;;13.05;5.75;;;9.50;99.90;;;;;;4901967;28;89808;-35
2022/05/08 06:21:53;;;;;;;9.60;4.70;;;9.50;99.90;;;;;;4900827;28;89179;-35
2022/05/08 06:24:20;;;;;;;13.52;4.65;;;9.60;99.90;;;;;;4901435;28;90096;-34
2022/05/08 06:26:45;;;;;;;9.27;4.20;;;9.70;99.90;;;;;;4900505;28;89989;-33
2022/05/08 06:29:11;;;;;;;10.70;5.07;;;9.60;99.90;;;;;;4901474;28;88704;-32
2022/05/08 06:31:36;;;;;;;11.20;5.60;;;9.70;99.90;;;;;;4900948;28;90120;-33
2022/05/08 06:34:02;;;;;;;7.80;4.78;;;9.70;99.90;;;;;;4900424;28;90678;-33
2022/05/08 06:36:28;;;;;;;12.05;5.28;;;9.80;99.90;;;;;;4900868;28;90646;-39
2022/05/08 06:38:54;;;;;;;16.17;6.10;;;9.80;99.90;;;;;;4916124;28;88429;-34
2022/05/08 06:41:20;;;;;;;11.60;4.63;;;10.00;99.90;;;;;;4899827;28;90265;-36
2022/05/08 06:43:45;;;;;;;6.38;3.70;;;10.00;99.90;;;;;;4900574;28;90231;-33
2022/05/08 06:46:11;;;;;;;11.63;4.80;;;10.00;99.90;;;;;;4900809;28;89644;-34
2022/05/08 06:48:37;;;;;;;10.75;4.80;;;10.10;99.90;;;;;;4900868;28;89101;-39
2022/05/08 06:51:03;;;;;;;5.22;4.30;;;10.30;99.90;;;;;;4901212;28;90326;-36
2022/05/08 06:53:30;;;;;;;11.13;4.95;;;10.60;99.90;;;;;;4900457;28;90311;-34
2022/05/08 06:55:56;;;;;;;11.05;5.50;;;10.70;99.90;;;;;;4900612;28;89492;-36
2022/05/08 06:58:21;;;;;;;12.63;5.03;;;10.40;99.90;;;;;;4900776;28;89603;-35
2022/05/08 07:03:32;;;;;;;6.03;4.38;;;10.50;99.90;;;;;;4901520;28;89815;-36
2022/05/08 07:06:00;;;;;;;7.38;4.13;;;10.50;99.90;;;;;;4900199;28;89923;-33
2022/05/08 07:08:25;;;;;;;12.00;4.93;;;10.40;99.90;;;;;;4901115;28;88914;-34
2022/05/08 07:10:51;;;;;;;11.55;4.38;;;10.40;99.90;;;;;;4901352;28;89377;-33
2022/05/08 07:13:17;;;;;;;14.18;4.88;;;10.50;99.90;;;;;;4900838;28;90568;-32
2022/05/08 07:15:42;;;;;;;6.63;3.72;;;10.30;99.90;;;;;;4902852;28;90387;-33
2022/05/08 07:18:08;;;;;;;13.93;4.50;;;10.40;99.90;;;;;;4904266;28;90316;-34
2022/05/08 07:20:34;;;;;;;15.15;6.22;;;10.40;99.90;;;;;;4904215;28;90410;-34
2022/05/08 07:23:00;;;;;;;9.27;5.18;;;10.30;99.90;;;;;;4903834;28;90589;-34
2022/05/08 07:25:26;;;;;;;15.52;4.65;;;10.40;99.90;;;;;;4904044;28;89895;-36
2022/05/08 07:27:52;;;;;;;11.38;4.70;;;10.40;99.90;;;;;;4904914;28;89328;-31
2022/05/08 07:30:18;;;;;;;6.00;4.25;;;10.40;99.90;;;;;;4903602;28;90386;-33
2022/05/08 07:32:44;;;;;;;9.82;4.80;;;10.60;99.90;;;;;;4903514;28;90227;-36
2022/05/08 07:37:55;;;;;;;6.55;4.50;;;10.40;99.90;;;;;;4903814;28;88886;-33
2022/05/08 07:40:20;;;;;;;7.72;4.05;;;10.60;99.90;;;;;;4903943;28;90498;-35
2022/05/08 07:42:46;;;;;;;14.77;4.55;;;10.70;99.90;;;;;;4902802;28;89912;-35
2022/05/08 07:45:11;;;;;;;11.10;4.20;;;10.60;99.90;;;;;;4903522;28;89753;-34
2022/05/08 07:47:37;;;;;;;4.95;4.20;;;11.00;99.90;;;;;;4903613;28;90080;-34
2022/05/08 07:50:03;;;;;;;10.05;4.05;;;11.00;99.90;;;;;;4903405;28;90126;-33
2022/05/08 07:52:29;;;;;;;9.25;4.07;;;11.00;99.90;;;;;;4904233;28;89151;-34
2022/05/08 07:54:54;;;;;;;7.57;3.75;;;11.00;99.90;;;;;;4903160;28;88612;-35
2022/05/08 07:57:20;;;;;;;12.93;4.60;;;10.90;99.90;;;;;;4904212;28;90147;-35
2022/05/08 07:59:47;;;;;;;9.90;4.57;;;10.90;99.90;;;;;;4903278;28;95107;-33
2022/05/08 08:02:13;;;;;;;6.40;3.77;;;11.10;99.90;;;;;;4903171;28;88639;-32
2022/05/08 08:04:39;;;;;;;8.63;4.63;;;11.40;99.90;;;;;;4904347;28;89814;-35
2022/05/08 08:07:04;;;;;;;8.32;3.45;;;11.80;99.90;;;;;;4903040;28;88003;-33
2022/05/08 08:09:30;;;;;;;10.73;4.53;;;12.00;99.90;;;;;;4903288;28;89221;-37
2022/05/08 08:11:56;;;;;;;11.88;3.47;;;11.90;99.90;;;;;;4902661;28;90587;-34
2022/05/08 08:14:21;;;;;;;14.63;4.32;;;11.80;99.90;;;;;;4902789;28;90500;-35
2022/05/08 08:16:47;;;;;;;12.50;3.55;;;11.70;99.90;;;;;;4903710;28;87876;-37
2022/05/08 08:19:13;;;;;;;4.03;3.45;;;12.50;99.90;;;;;;4903001;28;92220;-34
2022/05/08 08:21:39;;;;;;;7.38;3.63;;;13.20;99.90;;;;;;4903326;28;89994;-34
2022/05/08 08:24:05;;;;;;;5.53;3.33;;;13.20;99.90;;;;;;4903322;28;89432;-33
2022/05/08 08:26:30;;;;;;;4.72;3.60;;;12.80;99.90;;;;;;4903102;28;89483;-37
2022/05/08 08:28:56;;;;;;;7.88;4.07;;;12.30;99.90;;;;;;4903002;28;90220;-34
2022/05/08 08:31:21;;;;;;;4.05;3.65;;;12.60;99.90;;;;;;4902944;28;94798;-33
2022/05/08 08:33:48;;;;;;;8.98;4.07;;;12.60;99.90;;;;;;4903376;28;89292;-33
2022/05/08 08:36:14;;;;;;;7.03;3.67;;;12.70;99.90;;;;;;4901075;28;90881;-34
2022/05/08 08:38:40;;;;;;;9.60;3.83;;;13.20;99.90;;;;;;4882466;28;90071;-37
2022/05/08 08:41:07;;;;;;;7.05;4.30;;;12.70;99.90;;;;;;4883552;28;89693;-37
2022/05/08 08:47:42;;;;;;;7.80;4.43;;;12.80;99.90;;;;;;4883505;28;88893;-33
2022/05/08 08:49:20;;;;;;;14.65;3.63;;;12.90;99.90;;;;;;4883388;28;90503;-33
2022/05/08 08:51:48;;;;;;;5.50;3.30;;;13.40;99.90;;;;;;4883647;28;89788;-34
2022/05/08 08:54:14;;;;;;;12.95;4.80;;;13.70;99.90;;;;;;4883643;28;89876;-39
2022/05/08 08:56:40;;;;;;;10.73;4.07;;;13.80;99.90;;;;;;4883149;28;89063;-33
2022/05/08 08:59:05;;;;;;;14.73;3.88;;;13.90;99.90;;;;;;4883047;28;91132;-33
2022/05/08 09:01:38;;;;;;;6.07;3.85;;;13.60;99.90;;;;;;4882958;28;90713;-34
2022/05/08 09:04:04;;;;;;;10.18;3.55;;;13.50;99.90;;;;;;4883381;28;90370;-38
2022/05/08 09:06:40;;;;;;;12.52;4.25;;;13.60;99.90;;;;;;4883208;28;89542;-34
2022/05/08 09:09:23;;;;;;;15.35;3.78;;;13.70;99.90;;;;;;4882741;28;90941;-36
2022/05/08 09:11:49;;;;;;;12.77;5.30;;;14.00;99.90;;;;;;4883006;28;88989;-35
2022/05/08 09:14:34;;;;;;;10.32;4.40;;;14.20;99.90;;;;;;4882899;28;90337;-37
2022/05/08 09:17:01;;;;;;;9.07;4.00;;;13.90;99.90;;;;;;4883320;28;89486;-37
2022/05/08 09:19:37;;;;;;;10.85;4.35;;;14.10;99.90;;;;;;4882892;28;89465;-34
2022/05/08 09:22:07;;;;;;;13.05;4.00;;;14.10;99.90;;;;;;4882847;28;89611;-35
2022/05/08 09:24:34;;;;;;;10.77;3.22;;;13.80;99.90;;;;;;4883441;28;90125;-33
2022/05/08 09:27:12;;;;;;;12.02;4.63;;;13.80;99.90;;;;;;4888032;28;90417;-34
2022/05/08 09:29:38;;;;;;;;;;;13.90;99.90;;;;;;4899550;28;90476;-35
2022/05/08 09:32:04;;;;;;;8.10;4.00;;;14.30;99.90;;;;;;4900726;28;89685;-35
2022/05/08 09:34:30;;;;;;;9.40;3.97;;;14.50;99.90;;;;;;4899395;28;89783;-37
2022/05/08 09:37:06;;;;;;;10.55;3.75;;;14.70;99.90;;;;;;4899231;28;89332;-36
2022/05/08 09:39:31;;;;;;;5.50;3.22;;;15.00;93.70;;;;;;4898855;28;90383;-35
2022/05/08 09:41:57;;;;;;;10.63;3.38;;;15.00;92.00;;;;;;4898872;28;89264;-35
2022/05/08 09:44:23;;;;;;;4.47;3.25;;;15.00;94.90;;;;;;4900247;28;89846;-31
2022/05/08 09:46:49;;;;;;;11.70;3.80;;;14.80;89.80;;;;;;4898929;28;89403;-33
2022/05/08 09:49:21;;;;;;;8.32;3.03;;;14.50;96.20;;;;;;4899133;28;90083;-35
2022/05/08 09:51:48;;;;;;;13.25;3.20;;;15.10;90.80;;;;;;4898206;28;91488;-35
2022/05/08 09:54:16;;;;;;;6.93;3.10;;;14.90;97.80;;;;;;4899233;28;89652;-37
2022/05/08 09:56:44;;;;;;;6.90;4.10;;;14.70;88.90;;;;;;4899467;28;89031;-37
2022/05/08 09:59:11;;;;;;;14.80;4.05;;;14.60;99.10;;;;;;4899367;28;90285;-35
2022/05/08 10:01:41;;;;;;;15.02;3.97;;;15.00;99.90;;;;;;4899085;28;89913;-35
2022/05/08 10:04:06;;;;;;;11.75;3.70;;;15.40;91.80;;;;;;4899457;28;89735;-33
2022/05/08 10:06:39;;;;;;;10.15;3.97;;;15.30;94.30;;;;;;4898852;28;88960;-36
2022/05/08 10:14:34;;;;;;;6.88;3.35;;;15.10;70.80;;;;;;4899972;28;90043;-34
2022/05/08 10:17:00;;;;;;;6.15;2.85;;;15.30;77.90;;;;;;4898898;28;89723;-38
2022/05/08 10:19:25;;;;;;;5.47;3.35;;;15.20;69.40;;;;;;4898367;28;90212;-33
2022/05/08 10:22:00;;;;;;;4.57;3.05;;;15.20;78.50;;;;;;4898743;28;89569;-35
2022/05/08 10:24:30;;;;;;;6.78;3.45;;;15.10;78.90;;;;;;4898786;28;90534;-34
2022/05/08 10:27:15;;;;;;;4.75;2.60;;;15.30;82.40;;;;;;4899832;28;89217;-35
2022/05/08 10:30:02;;;;;;;6.13;2.83;;;15.50;76.40;;;;;;4898411;28;92071;-36
2022/05/08 10:32:33;;;;;;;16.92;3.78;;;15.20;70.10;;;;;;4899107;28;89746;-37
2022/05/08 10:35:10;;;;;;;10.75;3.53;;;15.40;90.60;;;;;;4899896;28;90112;-37
2022/05/08 10:37:38;;;;;;;14.02;3.55;;;15.20;77.20;;;;;;4898913;28;87676;-37
2022/05/08 10:40:24;;;;;;;10.23;3.73;;;15.30;89.20;;;;;;4898998;28;90265;-38
2022/05/08 10:43:18;;;;;;;5.15;2.58;;;15.20;69.40;;;;;;4897999;28;91201;-35
2022/05/08 10:45:44;;;;;;;5.20;2.83;;;15.60;71.50;;;;;;4898114;28;90767;-34
2022/05/08 10:48:15;;;;;;;11.90;3.28;;;15.40;68.80;;;;;;4897580;28;89512;-33
2022/05/08 10:50:44;;;;;;;10.90;3.65;;;15.30;72.90;;;;;;4899317;28;90769;-36
2022/05/08 10:53:29;;;;;;;10.90;3.60;;;15.40;81.50;;;;;;4901239;28;90258;-36
2022/05/08 10:56:04;;;;;;;6.53;3.83;;;15.70;80.20;;;;;;4901785;28;89496;-36
2022/05/08 10:58:30;;;;;;;5.60;3.08;;;15.90;76.90;;;;;;4901566;28;89861;-34
2022/05/08 11:00:57;;;;;;;8.00;2.60;;;15.80;67.00;;;;;;4901745;28;90253;-38
2022/05/08 11:03:23;;;;;;;13.00;4.22;;;15.70;74.70;;;;;;4902097;28;89637;-37
2022/05/08 11:05:48;;;;;;;6.70;3.58;;;16.10;72.10;;;;;;4900867;28;89665;-37
2022/05/08 11:08:28;;;;;;;8.20;3.33;;;15.80;74.00;;;;;;4900127;28;90125;-34
2022/05/08 11:11:07;;;;;;;4.18;3.13;;;15.60;79.30;;;;;;4901176;28;90028;-36
2022/05/08 11:13:48;;;;;;;;;;;15.30;76.20;;;;;;4892749;28;89706;-35
2022/05/08 11:16:33;;;;;;;7.63;3.72;;;15.40;85.10;;;;;;4898912;28;88801;-36
2022/05/08 11:18:59;;;;;;;6.22;2.67;;;15.60;74.70;;;;;;4901440;28;88932;-36
2022/05/08 11:21:26;;;;;;;10.38;3.78;;;15.50;74.80;;;;;;4901460;28;91133;-35
2022/05/08 11:23:53;;;;;;;18.75;3.53;;;15.60;83.70;;;;;;4901334;28;89764;-36
2022/05/08 11:26:26;;;;;;;9.45;3.85;;;15.60;80.80;;;;;;4902739;28;90422;-36
2022/05/08 11:28:55;;;;;;;7.15;3.17;;;15.40;79.80;;;;;;4902260;28;89690;-36
2022/05/08 11:31:23;;;;;;;7.15;3.60;;;15.70;70.00;;;;;;4901323;28;90572;-34
2022/05/08 11:36:40;;;;;;;10.60;3.42;;;15.20;69.00;;;;;;4902025;28;89880;-32
2022/05/08 11:39:14;;;;;;;10.63;3.67;;;15.40;71.70;;;;;;4903124;28;89771;-38
2022/05/08 11:41:44;;;;;;;6.07;3.00;;;15.20;68.40;;;;;;4901472;28;90699;-37
2022/05/08 11:44:16;;;;;;;10.73;3.67;;;15.40;70.20;;;;;;4900302;28;89717;-38
2022/05/08 11:46:47;;;;;;;5.47;4.57;;;15.40;67.60;;;;;;4901138;28;89396;-34
2022/05/08 11:49:15;;;;;;;3.38;2.38;;;15.60;74.50;;;;;;4902199;28;87588;-34
2022/05/08 11:51:45;;;;;;;7.75;3.33;;;15.50;70.70;;;;;;4901891;28;89977;-37
2022/05/08 11:54:30;;;;;;;7.90;3.13;;;15.60;69.70;;;;;;4900947;28;90894;-34
2022/05/08 11:57:20;;;;;;;9.88;3.33;;;15.50;67.20;;;;;;4900114;28;89930;-34
2022/05/08 11:59:51;;;;;;;14.85;3.88;;;15.70;76.40;;;;;;4900087;28;89991;-34
2022/05/08 12:02:18;;;;;;;8.45;3.85;;;15.70;73.60;;;;;;4900806;28;89294;-33
2022/05/08 12:04:55;;;;;;;7.32;3.22;;;15.60;73.00;;;;;;4899593;28;88816;-33
2022/05/08 12:07:21;;;;;;;7.28;3.05;;;15.70;67.10;;;;;;4899857;28;89554;-36
2022/05/08 12:09:47;;;;;;;6.97;2.97;;;15.80;68.00;;;;;;4900796;28;89432;-34
2022/05/08 12:12:35;;;;;;;7.68;3.75;;;15.80;65.00;;;;;;4899908;28;92039;-34
2022/05/08 12:15:07;;;;;;;;;;;15.80;73.60;;;;;;4901520;28;90230;-35
2022/05/08 12:17:41;;;;;;;8.13;3.63;;;15.60;67.10;;;;;;4903102;28;89141;-35
2022/05/08 12:20:19;;;;;;;6.40;3.13;;;15.90;70.20;;;;;;4901042;28;88443;-34
2022/05/08 12:22:56;;;;;;;5.90;2.63;;;16.00;67.10;;;;;;4899118;28;90719;-38
2022/05/08 12:25:21;;;;;;;6.38;3.42;;;16.00;60.10;;;;;;4899764;28;90584;-37
2022/05/08 12:27:47;;;;;;;16.60;4.38;;;15.90;62.50;;;;;;4898968;28;90439;-35
2022/05/08 12:30:12;;;;;;;8.73;4.32;;;15.90;69.50;;;;;;4900122;28;89387;-34
2022/05/08 12:32:39;;;;;;;5.80;3.17;;;16.20;72.70;;;;;;4899670;28;90594;-33
2022/05/08 12:35:05;;;;;;;6.80;3.92;;;15.70;62.50;;;;;;4899548;28;89755;-34
2022/05/08 12:37:31;;;;;;;8.95;3.35;;;16.00;72.20;;;;;;4899441;28;89775;-34
2022/05/08 12:39:56;;;;;;;15.30;3.63;;;16.00;72.40;;;;;;4935922;23;89970;-34
2022/05/08 12:42:22;;;;;;;7.53;3.85;;;15.90;70.40;;;;;;4957034;28;91355;-34
2022/05/08 12:44:48;;;;;;;9.70;3.47;;;15.70;70.10;;;;;;4958422;28;89640;-35
2022/05/08 12:47:14;;;;;;;13.20;4.32;;;15.70;65.60;;;;;;4957663;28;89938;-39
2022/05/08 12:49:41;;;;;;;14.77;3.55;;;15.60;74.80;;;;;;4957439;28;90358;-37
2022/05/08 12:52:08;;;;;;;8.65;3.55;;;15.40;70.70;;;;;;4957873;28;90486;-34
2022/05/08 12:54:34;;;;;;;7.43;3.72;;;15.20;66.90;;;;;;4958371;28;90141;-34
2022/05/08 12:57:01;;;;;;;8.90;2.95;;;15.40;69.90;;;;;;4959279;28;89030;-37
2022/05/08 13:02:12;;;;;;;6.07;2.90;;;15.40;77.80;;;;;;4938746;28;90170;-39
2022/05/08 13:04:42;;;;;;;7.05;3.38;;;15.70;64.70;;;;;;4938084;28;89930;-34
2022/05/08 13:07:08;;;;;;;7.60;3.25;;;15.70;69.00;;;;;;4938857;28;89923;-35
2022/05/08 13:09:34;;;;;;;10.32;3.80;;;15.40;65.70;;;;;;4938422;28;88693;-34
2022/05/08 13:12:04;;;;;;;8.60;3.40;;;15.80;70.00;;;;;;4937678;28;90147;-36